createdAt,value
2016-12-05T00:00:01.015Z,16.16
2016-12-05T00:00:29.311Z,16.13
2016-12-05T00:00:57.521Z,16.14
2016-12-05T00:01:25.774Z,16.11
2016-12-05T00:01:54.106Z,16.17
2016-12-05T00:02:22.421Z,16.04
2016-12-05T00:02:50.646Z,16.06
2016-12-05T00:03:18.935Z,16.04
2016-12-05T00:03:47.278Z,16.13
2016-12-05T00:04:15.493Z,16.04
2016-12-05T00:04:43.639Z,16
2016-12-05T00:05:11.892Z,15.99
2016-12-05T00:05:40.234Z,16.08
2016-12-05T00:06:08.368Z,15.98
2016-12-05T00:06:36.714Z,16.04
2016-12-05T00:07:04.995Z,16.02
2016-12-05T00:07:33.310Z,15.98
2016-12-05T00:08:01.562Z,15.96
2016-12-05T00:08:29.746Z,16.04
2016-12-05T00:08:58.019Z,16.02
2016-12-05T00:09:26.167Z,16
2016-12-05T00:09:54.481Z,16.07
2016-12-05T00:10:22.730Z,16.02
2016-12-05T00:10:51.051Z,16.02
2016-12-05T00:11:19.226Z,16.04
2016-12-05T00:11:47.465Z,16.08
2016-12-05T00:12:15.570Z,15.96
2016-12-05T00:12:43.805Z,15.92
2016-12-05T00:13:11.879Z,15.96
2016-12-05T00:13:40.005Z,15.92
2016-12-05T00:14:08.112Z,15.89
2016-12-05T00:14:36.305Z,15.84
2016-12-05T00:15:04.519Z,15.92
2016-12-05T00:15:32.819Z,15.86
2016-12-05T00:16:01.031Z,15.83
2016-12-05T00:16:29.289Z,15.75
2016-12-05T00:16:57.580Z,15.75
2016-12-05T00:17:25.716Z,15.73
2016-12-05T00:17:53.822Z,15.75
2016-12-05T00:18:22.064Z,15.7
2016-12-05T00:18:50.100Z,15.84
2016-12-05T00:19:18.432Z,15.7
2016-12-05T00:19:46.731Z,15.8
2016-12-05T00:20:14.784Z,15.74
2016-12-05T00:20:43.016Z,15.71
2016-12-05T00:21:11.342Z,15.77
2016-12-05T00:21:39.644Z,15.75
2016-12-05T00:22:07.734Z,15.8
2016-12-05T00:22:35.989Z,15.75
2016-12-05T00:23:04.217Z,15.78
2016-12-05T00:23:32.465Z,15.78
2016-12-05T00:24:00.575Z,15.81
2016-12-05T00:24:28.863Z,15.75
2016-12-05T00:24:56.859Z,15.75
2016-12-05T00:25:25.184Z,15.78
2016-12-05T00:26:36.347Z,15.65
2016-12-05T00:27:04.669Z,15.67
2016-12-05T00:27:32.915Z,15.71
2016-12-05T00:28:01.048Z,15.73
2016-12-05T00:28:29.261Z,15.81
2016-12-05T00:28:57.891Z,15.71
2016-12-05T00:29:26.215Z,15.68
2016-12-05T00:29:54.440Z,15.73
2016-12-05T00:30:48.623Z,15.78
2016-12-05T00:31:16.886Z,15.74
2016-12-05T00:31:45.194Z,15.77
2016-12-05T00:32:13.451Z,15.78
2016-12-05T00:32:41.625Z,15.75
2016-12-05T00:33:09.840Z,15.83
2016-12-05T00:33:38.184Z,15.81
2016-12-05T00:34:06.346Z,15.86
2016-12-05T00:34:34.447Z,15.86
2016-12-05T00:35:02.672Z,15.78
2016-12-05T00:35:30.779Z,15.84
2016-12-05T00:35:59.114Z,15.83
2016-12-05T00:36:27.257Z,15.83
2016-12-05T00:36:55.615Z,15.88
2016-12-05T00:37:23.759Z,15.86
2016-12-05T00:37:51.979Z,15.92
2016-12-05T00:38:20.340Z,15.83
2016-12-05T00:38:48.389Z,15.84
2016-12-05T00:39:16.557Z,15.91
2016-12-05T00:39:44.866Z,15.81
2016-12-05T00:40:13.120Z,15.91
2016-12-05T00:40:41.289Z,15.84
2016-12-05T00:41:09.526Z,15.88
2016-12-05T00:41:37.784Z,15.93
2016-12-05T00:42:05.716Z,15.86
2016-12-05T00:42:33.948Z,15.86
2016-12-05T00:43:02.250Z,15.92
2016-12-05T00:43:30.275Z,15.88
2016-12-05T00:43:58.448Z,15.89
2016-12-05T00:44:26.670Z,15.92
2016-12-05T00:44:54.968Z,15.86
2016-12-05T00:45:23.189Z,15.86
2016-12-05T00:45:51.274Z,15.86
2016-12-05T00:46:19.518Z,15.89
2016-12-05T00:46:47.870Z,15.89
2016-12-05T00:47:16.118Z,15.91
2016-12-05T00:47:44.458Z,15.91
2016-12-05T00:48:12.686Z,15.86
2016-12-05T00:48:40.965Z,15.89
2016-12-05T00:49:09.271Z,15.91
2016-12-05T00:49:37.558Z,15.83
2016-12-05T00:50:05.642Z,15.89
2016-12-05T00:50:33.746Z,15.95
2016-12-05T00:51:02.074Z,15.92
2016-12-05T00:51:30.368Z,15.93
2016-12-05T00:51:58.490Z,15.96
2016-12-05T00:52:26.718Z,15.91
2016-12-05T00:52:55.073Z,15.84
2016-12-05T00:53:23.250Z,15.84
2016-12-05T00:53:51.397Z,15.86
2016-12-05T00:54:19.414Z,15.88
2016-12-05T00:54:47.531Z,15.86
2016-12-05T00:55:15.496Z,15.84
2016-12-05T00:55:43.799Z,15.89
2016-12-05T00:56:11.952Z,15.84
2016-12-05T00:56:40.062Z,15.93
2016-12-05T00:57:08.397Z,15.92
2016-12-05T00:57:36.599Z,15.91
2016-12-05T00:58:04.777Z,15.83
2016-12-05T00:58:32.974Z,15.86
2016-12-05T00:59:01.301Z,15.91
2016-12-05T00:59:29.420Z,15.81
2016-12-05T00:59:57.621Z,15.84
2016-12-05T01:00:25.828Z,15.88
2016-12-05T01:00:53.876Z,15.75
2016-12-05T01:01:22.156Z,15.84
2016-12-05T01:01:50.286Z,15.77
2016-12-05T01:02:18.702Z,15.84
2016-12-05T01:02:46.985Z,15.74
2016-12-05T01:03:15.255Z,15.8
2016-12-05T01:03:43.612Z,15.78
2016-12-05T01:04:11.815Z,15.77
2016-12-05T01:04:40.134Z,15.86
2016-12-05T01:05:08.401Z,15.84
2016-12-05T01:05:36.779Z,15.83
2016-12-05T01:06:05.190Z,15.75
2016-12-05T01:06:33.279Z,15.91
2016-12-05T01:07:01.584Z,15.84
2016-12-05T01:07:29.685Z,15.77
2016-12-05T01:07:57.860Z,15.78
2016-12-05T01:08:25.921Z,15.88
2016-12-05T01:08:54.198Z,15.74
2016-12-05T01:09:22.367Z,15.81
2016-12-05T01:09:50.426Z,15.75
2016-12-05T01:10:18.651Z,15.83
2016-12-05T01:10:46.864Z,15.7
2016-12-05T01:11:14.819Z,15.75
2016-12-05T01:11:42.888Z,15.77
2016-12-05T01:12:11.121Z,15.74
2016-12-05T01:12:39.227Z,15.8
2016-12-05T01:13:07.485Z,15.74
2016-12-05T01:13:35.824Z,15.75
2016-12-05T01:14:04.060Z,15.78
2016-12-05T01:14:32.294Z,15.78
2016-12-05T01:15:00.469Z,15.77
2016-12-05T01:15:28.801Z,15.74
2016-12-05T01:15:57.032Z,15.83
2016-12-05T01:16:25.151Z,15.77
2016-12-05T01:16:53.240Z,15.8
2016-12-05T01:17:21.517Z,15.77
2016-12-05T01:17:49.739Z,15.77
2016-12-05T01:18:18.041Z,15.75
2016-12-05T01:18:46.227Z,15.83
2016-12-05T01:19:14.243Z,15.75
2016-12-05T01:19:42.529Z,15.89
2016-12-05T01:20:10.878Z,15.8
2016-12-05T01:20:39.322Z,15.84
2016-12-05T01:21:07.593Z,15.89
2016-12-05T01:21:35.836Z,15.77
2016-12-05T01:22:04.085Z,15.84
2016-12-05T01:22:32.643Z,15.7
2016-12-05T01:23:00.861Z,15.84
2016-12-05T01:23:29.037Z,15.86
2016-12-05T01:23:56.969Z,15.81
2016-12-05T01:24:25.229Z,15.8
2016-12-05T01:24:53.245Z,15.88
2016-12-05T01:25:21.556Z,15.89
2016-12-05T01:25:49.834Z,15.84
2016-12-05T01:26:18.336Z,15.83
2016-12-05T01:26:46.394Z,15.86
2016-12-05T01:27:14.912Z,15.89
2016-12-05T01:27:43.294Z,15.88
2016-12-05T01:28:11.423Z,15.83
2016-12-05T01:28:39.529Z,15.88
2016-12-05T01:29:07.883Z,15.86
2016-12-05T01:30:07.627Z,15.84
2016-12-05T01:30:35.975Z,15.81
2016-12-05T01:31:04.113Z,15.8
2016-12-05T01:31:32.350Z,15.89
2016-12-05T01:32:00.614Z,15.88
2016-12-05T01:32:29.018Z,15.83
2016-12-05T01:32:57.239Z,15.89
2016-12-05T01:33:25.515Z,15.81
2016-12-05T01:33:53.767Z,15.89
2016-12-05T01:35:05.039Z,15.84
2016-12-05T01:35:33.215Z,15.86
2016-12-05T01:36:01.499Z,15.86
2016-12-05T01:36:29.714Z,15.77
2016-12-05T01:36:58.067Z,15.78
2016-12-05T01:37:26.295Z,15.74
2016-12-05T01:37:54.493Z,15.84
2016-12-05T01:38:22.745Z,15.74
2016-12-05T01:38:50.879Z,15.68
2016-12-05T01:39:19.155Z,15.7
2016-12-05T01:39:47.209Z,15.68
2016-12-05T01:40:15.326Z,15.68
2016-12-05T01:40:43.554Z,15.7
2016-12-05T01:41:11.717Z,15.74
2016-12-05T01:41:39.989Z,15.63
2016-12-05T01:42:08.022Z,15.73
2016-12-05T01:42:36.321Z,15.65
2016-12-05T01:43:04.449Z,15.67
2016-12-05T01:43:32.816Z,15.63
2016-12-05T01:44:01.054Z,15.7
2016-12-05T01:44:29.315Z,15.63
2016-12-05T01:44:57.651Z,15.67
2016-12-05T01:45:25.765Z,15.68
2016-12-05T01:45:53.933Z,15.68
2016-12-05T01:46:22.276Z,15.68
2016-12-05T01:46:50.582Z,15.68
2016-12-05T01:47:18.603Z,15.7
2016-12-05T01:47:46.708Z,15.7
2016-12-05T01:48:14.893Z,15.65
2016-12-05T01:48:43.096Z,15.73
2016-12-05T01:49:11.140Z,15.65
2016-12-05T01:49:39.394Z,15.68
2016-12-05T01:50:27.995Z,15.67
2016-12-05T01:50:56.105Z,15.67
2016-12-05T01:51:24.320Z,15.63
2016-12-05T01:51:52.550Z,15.65
2016-12-05T01:52:20.884Z,15.68
2016-12-05T01:52:49.344Z,15.67
2016-12-05T01:53:17.666Z,15.62
2016-12-05T01:53:45.776Z,15.63
2016-12-05T01:54:14.056Z,15.7
2016-12-05T01:54:42.171Z,15.59
2016-12-05T01:55:10.269Z,15.65
2016-12-05T01:55:38.481Z,15.7
2016-12-05T01:56:06.697Z,15.65
2016-12-05T01:56:34.843Z,15.73
2016-12-05T01:57:02.999Z,15.67
2016-12-05T01:57:31.360Z,15.65
2016-12-05T01:57:59.689Z,15.73
2016-12-05T01:58:27.882Z,15.67
2016-12-05T01:58:56.174Z,15.73
2016-12-05T01:59:24.474Z,15.7
2016-12-05T01:59:52.494Z,15.65
2016-12-05T02:00:20.841Z,15.63
2016-12-05T02:00:49.012Z,15.56
2016-12-05T02:01:17.206Z,15.59
2016-12-05T02:01:45.551Z,15.56
2016-12-05T02:02:39.834Z,15.58
2016-12-05T02:03:08.020Z,15.55
2016-12-05T02:03:36.274Z,15.55
2016-12-05T02:05:50.284Z,15.53
2016-12-05T02:06:18.566Z,15.53
2016-12-05T02:06:46.832Z,15.52
2016-12-05T02:07:15.021Z,15.53
2016-12-05T02:07:43.414Z,15.52
2016-12-05T02:08:11.480Z,15.51
2016-12-05T02:08:39.654Z,15.53
2016-12-05T02:09:07.653Z,15.59
2016-12-05T02:09:35.934Z,15.59
2016-12-05T02:10:04.198Z,15.53
2016-12-05T02:10:32.226Z,15.56
2016-12-05T02:11:00.325Z,15.58
2016-12-05T02:11:28.494Z,15.52
2016-12-05T02:11:56.649Z,15.6
2016-12-05T02:12:24.884Z,15.55
2016-12-05T02:12:53.257Z,15.52
2016-12-05T02:13:21.609Z,15.45
2016-12-05T02:13:49.930Z,15.53
2016-12-05T02:14:18.005Z,15.53
2016-12-05T02:14:46.185Z,15.45
2016-12-05T02:15:14.358Z,15.55
2016-12-05T02:15:42.420Z,15.56
2016-12-05T02:16:10.598Z,15.51
2016-12-05T02:16:38.710Z,15.52
2016-12-05T02:17:06.775Z,15.53
2016-12-05T02:17:34.772Z,15.45
2016-12-05T02:18:02.955Z,15.59
2016-12-05T02:18:31.300Z,15.45
2016-12-05T02:18:59.514Z,15.55
2016-12-05T02:19:27.653Z,15.52
2016-12-05T02:19:55.964Z,15.49
2016-12-05T02:20:24.210Z,15.49
2016-12-05T02:20:52.528Z,15.44
2016-12-05T02:21:20.733Z,15.56
2016-12-05T02:21:48.814Z,15.58
2016-12-05T02:22:17.035Z,15.55
2016-12-05T02:22:45.068Z,15.59
2016-12-05T02:23:13.375Z,15.55
2016-12-05T02:23:41.524Z,15.52
2016-12-05T02:24:09.583Z,15.53
2016-12-05T02:24:37.701Z,15.56
2016-12-05T02:25:06.021Z,15.59
2016-12-05T02:25:34.124Z,15.52
2016-12-05T02:26:02.399Z,15.59
2016-12-05T02:26:30.522Z,15.45
2016-12-05T02:26:58.842Z,15.45
2016-12-05T02:27:27.107Z,15.45
2016-12-05T02:27:55.421Z,15.47
2016-12-05T02:29:06.478Z,15.45
2016-12-05T02:29:34.722Z,15.47
2016-12-05T02:30:03.020Z,15.59
2016-12-05T02:30:31.198Z,15.49
2016-12-05T02:30:59.370Z,15.49
2016-12-05T02:31:27.568Z,15.55
2016-12-05T02:32:16.087Z,15.43
2016-12-05T02:32:44.283Z,15.49
2016-12-05T02:33:12.527Z,15.45
2016-12-05T02:33:40.848Z,15.45
2016-12-05T02:34:08.971Z,15.45
2016-12-05T02:34:37.225Z,15.49
2016-12-05T02:35:05.438Z,15.45
2016-12-05T02:35:33.617Z,15.49
2016-12-05T02:36:01.714Z,15.43
2016-12-05T02:36:29.968Z,15.49
2016-12-05T02:36:58.313Z,15.44
2016-12-05T02:37:26.425Z,15.45
2016-12-05T02:37:54.841Z,15.49
2016-12-05T02:38:23.258Z,15.49
2016-12-05T02:38:51.294Z,15.51
2016-12-05T02:39:19.448Z,15.53
2016-12-05T02:39:47.744Z,15.55
2016-12-05T02:40:15.616Z,15.59
2016-12-05T02:40:43.739Z,15.58
2016-12-05T02:41:49.378Z,15.53
2016-12-05T02:42:17.712Z,15.59
2016-12-05T02:42:45.965Z,15.58
2016-12-05T02:43:14.318Z,15.6
2016-12-05T02:43:42.440Z,15.6
2016-12-05T02:44:10.372Z,15.6
2016-12-05T02:44:38.574Z,15.58
2016-12-05T02:45:06.768Z,15.53
2016-12-05T02:45:34.830Z,15.59
2016-12-05T02:46:03.146Z,15.56
2016-12-05T02:46:31.398Z,15.56
2016-12-05T02:46:59.539Z,15.56
2016-12-05T02:47:27.683Z,15.52
2016-12-05T02:47:56.126Z,15.56
2016-12-05T02:48:24.243Z,15.53
2016-12-05T02:48:52.459Z,15.55
2016-12-05T02:49:20.743Z,15.56
2016-12-05T02:49:49.037Z,15.56
2016-12-05T02:50:17.298Z,15.59
2016-12-05T02:50:45.577Z,15.49
2016-12-05T02:51:13.924Z,15.53
2016-12-05T02:51:42.048Z,15.47
2016-12-05T02:52:10.356Z,15.56
2016-12-05T02:52:38.701Z,15.59
2016-12-05T02:53:06.850Z,15.55
2016-12-05T02:53:35.045Z,15.59
2016-12-05T02:54:03.247Z,15.58
2016-12-05T02:54:31.517Z,15.56
2016-12-05T02:54:59.598Z,15.49
2016-12-05T02:55:27.793Z,15.45
2016-12-05T02:55:55.988Z,15.55
2016-12-05T02:56:24.185Z,15.59
2016-12-05T02:56:52.438Z,15.59
2016-12-05T02:57:20.664Z,15.51
2016-12-05T02:57:48.922Z,15.58
2016-12-05T02:58:17.221Z,15.56
2016-12-05T02:58:45.519Z,15.56
2016-12-05T02:59:13.835Z,15.55
2016-12-05T02:59:42.203Z,15.63
2016-12-05T03:00:10.512Z,15.55
2016-12-05T03:00:38.663Z,15.55
2016-12-05T03:01:06.945Z,15.53
2016-12-05T03:01:35.218Z,15.56
2016-12-05T03:02:03.428Z,15.53
2016-12-05T03:02:31.661Z,15.65
2016-12-05T03:02:59.684Z,15.55
2016-12-05T03:03:27.862Z,15.58
2016-12-05T03:03:55.990Z,15.6
2016-12-05T03:04:24.122Z,15.58
2016-12-05T03:04:52.449Z,15.62
2016-12-05T03:05:20.834Z,15.55
2016-12-05T03:05:48.954Z,15.56
2016-12-05T03:06:17.181Z,15.59
2016-12-05T03:06:45.465Z,15.56
2016-12-05T03:07:13.831Z,15.49
2016-12-05T03:07:42.039Z,15.56
2016-12-05T03:08:10.176Z,15.58
2016-12-05T03:08:38.414Z,15.58
2016-12-05T03:09:06.601Z,15.52
2016-12-05T03:09:34.724Z,15.52
2016-12-05T03:10:02.920Z,15.58
2016-12-05T03:10:31.043Z,15.58
2016-12-05T03:10:59.291Z,15.53
2016-12-05T03:11:27.581Z,15.62
2016-12-05T03:11:55.947Z,15.65
2016-12-05T03:12:24.177Z,15.58
2016-12-05T03:12:52.512Z,15.56
2016-12-05T03:13:20.828Z,15.55
2016-12-05T03:13:49.088Z,15.58
2016-12-05T03:14:17.325Z,15.53
2016-12-05T03:14:45.489Z,15.49
2016-12-05T03:15:13.660Z,15.59
2016-12-05T03:15:42.043Z,15.58
2016-12-05T03:16:10.351Z,15.53
2016-12-05T03:16:38.565Z,15.55
2016-12-05T03:17:06.686Z,15.45
2016-12-05T03:17:35.020Z,15.58
2016-12-05T03:18:03.242Z,15.56
2016-12-05T03:18:31.385Z,15.56
2016-12-05T03:18:59.700Z,15.55
2016-12-05T03:19:28.020Z,15.53
2016-12-05T03:19:56.070Z,15.56
2016-12-05T03:20:24.394Z,15.55
2016-12-05T03:20:52.700Z,15.56
2016-12-05T03:21:20.950Z,15.58
2016-12-05T03:21:49.135Z,15.7
2016-12-05T03:22:17.430Z,15.6
2016-12-05T03:22:45.742Z,15.65
2016-12-05T03:23:14.189Z,15.59
2016-12-05T03:23:42.432Z,15.67
2016-12-05T03:24:10.432Z,15.65
2016-12-05T03:24:38.470Z,15.63
2016-12-05T03:25:06.689Z,15.67
2016-12-05T03:25:34.850Z,15.7
2016-12-05T03:26:02.956Z,15.75
2016-12-05T03:26:31.045Z,15.67
2016-12-05T03:26:59.377Z,15.65
2016-12-05T03:27:27.522Z,15.56
2016-12-05T03:27:55.719Z,15.68
2016-12-05T03:28:24.174Z,15.58
2016-12-05T03:28:52.490Z,15.65
2016-12-05T03:29:20.798Z,15.63
2016-12-05T03:29:48.970Z,15.63
2016-12-05T03:30:17.245Z,15.6
2016-12-05T03:30:45.387Z,15.59
2016-12-05T03:31:13.522Z,15.56
2016-12-05T03:31:41.862Z,15.6
2016-12-05T03:32:09.961Z,15.65
2016-12-05T03:32:38.197Z,15.58
2016-12-05T03:33:06.356Z,15.67
2016-12-05T03:33:34.503Z,15.62
2016-12-05T03:34:02.631Z,15.59
2016-12-05T03:34:30.897Z,15.7
2016-12-05T03:34:59.118Z,15.6
2016-12-05T03:35:27.308Z,15.58
2016-12-05T03:35:55.659Z,15.65
2016-12-05T03:36:23.861Z,15.55
2016-12-05T03:36:52.078Z,15.51
2016-12-05T03:37:20.222Z,15.53
2016-12-05T03:37:48.433Z,15.51
2016-12-05T03:38:16.749Z,15.56
2016-12-05T03:38:44.853Z,15.63
2016-12-05T03:39:12.964Z,15.58
2016-12-05T03:39:41.275Z,15.49
2016-12-05T03:40:09.535Z,15.49
2016-12-05T03:40:37.843Z,15.59
2016-12-05T03:41:06.122Z,15.45
2016-12-05T03:41:34.392Z,15.56
2016-12-05T03:42:02.573Z,15.52
2016-12-05T03:42:30.736Z,15.52
2016-12-05T03:42:58.975Z,15.52
2016-12-05T03:43:27.100Z,15.55
2016-12-05T03:43:55.431Z,15.58
2016-12-05T03:44:23.594Z,15.59
2016-12-05T03:44:51.907Z,15.53
2016-12-05T03:45:20.049Z,15.53
2016-12-05T03:45:48.263Z,15.55
2016-12-05T03:46:16.563Z,15.55
2016-12-05T03:46:44.799Z,15.56
2016-12-05T03:47:13.061Z,15.58
2016-12-05T03:47:41.357Z,15.63
2016-12-05T03:48:09.686Z,15.62
2016-12-05T03:48:37.997Z,15.68
2016-12-05T03:49:06.273Z,15.63
2016-12-05T03:49:34.458Z,15.63
2016-12-05T03:50:02.715Z,15.7
2016-12-05T03:50:31.002Z,15.63
2016-12-05T03:50:59.334Z,15.67
2016-12-05T03:51:27.304Z,15.58
2016-12-05T03:51:55.321Z,15.62
2016-12-05T03:52:23.320Z,15.7
2016-12-05T03:52:51.393Z,15.63
2016-12-05T03:53:19.561Z,15.7
2016-12-05T03:53:47.762Z,15.67
2016-12-05T03:54:15.879Z,15.63
2016-12-05T03:54:44.047Z,15.68
2016-12-05T03:55:12.349Z,15.67
2016-12-05T03:55:40.639Z,15.73
2016-12-05T03:56:08.706Z,15.68
2016-12-05T03:56:36.986Z,15.73
2016-12-05T03:57:05.275Z,15.7
2016-12-05T03:57:33.459Z,15.62
2016-12-05T03:58:01.688Z,15.65
2016-12-05T03:58:29.915Z,15.75
2016-12-05T03:58:58.166Z,15.65
2016-12-05T03:59:26.256Z,15.7
2016-12-05T03:59:54.283Z,15.65
2016-12-05T04:00:22.604Z,15.68
2016-12-05T04:00:50.949Z,15.63
2016-12-05T04:01:19.268Z,15.63
2016-12-05T04:01:47.561Z,15.74
2016-12-05T04:02:15.690Z,15.7
2016-12-05T04:02:43.888Z,15.67
2016-12-05T04:03:12.123Z,15.67
2016-12-05T04:03:40.399Z,15.75
2016-12-05T04:04:08.739Z,15.67
2016-12-05T04:04:36.838Z,15.65
2016-12-05T04:05:05.071Z,15.74
2016-12-05T04:05:33.299Z,15.67
2016-12-05T04:06:01.595Z,15.67
2016-12-05T04:06:29.829Z,15.56
2016-12-05T04:06:57.864Z,15.63
2016-12-05T04:07:25.991Z,15.62
2016-12-05T04:07:54.223Z,15.62
2016-12-05T04:08:22.503Z,15.58
2016-12-05T04:08:50.668Z,15.55
2016-12-05T04:09:18.831Z,15.53
2016-12-05T04:09:46.865Z,15.58
2016-12-05T04:10:14.971Z,15.56
2016-12-05T04:10:43.314Z,15.55
2016-12-05T04:11:11.610Z,15.53
2016-12-05T04:11:39.802Z,15.63
2016-12-05T04:12:08.119Z,15.56
2016-12-05T04:12:36.156Z,15.55
2016-12-05T04:13:04.376Z,15.45
2016-12-05T04:13:32.627Z,15.51
2016-12-05T04:14:01.104Z,15.55
2016-12-05T04:14:29.339Z,15.58
2016-12-05T04:14:57.618Z,15.49
2016-12-05T04:15:25.712Z,15.44
2016-12-05T04:15:53.991Z,15.51
2016-12-05T04:16:22.072Z,15.52
2016-12-05T04:16:50.359Z,15.45
2016-12-05T04:17:18.351Z,15.45
2016-12-05T04:17:46.565Z,15.56
2016-12-05T04:18:14.692Z,15.52
2016-12-05T04:18:42.994Z,15.55
2016-12-05T04:19:11.243Z,15.6
2016-12-05T04:19:39.509Z,15.55
2016-12-05T04:20:07.802Z,15.55
2016-12-05T04:20:36.001Z,15.52
2016-12-05T04:21:04.166Z,15.52
2016-12-05T04:21:52.788Z,15.45
2016-12-05T04:22:21.024Z,15.52
2016-12-05T04:22:49.178Z,15.51
2016-12-05T04:23:17.379Z,15.45
2016-12-05T04:23:45.789Z,15.47
2016-12-05T04:24:13.818Z,15.52
2016-12-05T04:24:42.200Z,15.51
2016-12-05T04:25:10.469Z,15.45
2016-12-05T04:25:38.668Z,15.45
2016-12-05T04:26:38.591Z,15.47
2016-12-05T04:27:06.824Z,15.41
2016-12-05T04:27:34.997Z,15.34
2016-12-05T04:28:03.123Z,15.4
2016-12-05T04:28:31.325Z,15.4
2016-12-05T04:28:59.618Z,15.37
2016-12-05T04:29:27.895Z,15.51
2016-12-05T04:29:56.214Z,15.37
2016-12-05T04:30:24.348Z,15.41
2016-12-05T04:30:52.541Z,15.38
2016-12-05T04:31:20.711Z,15.38
2016-12-05T04:31:48.860Z,15.41
2016-12-05T04:32:17.072Z,15.41
2016-12-05T04:32:45.398Z,15.45
2016-12-05T04:33:13.718Z,15.37
2016-12-05T04:34:13.643Z,15.38
2016-12-05T04:34:41.900Z,15.38
2016-12-05T04:35:10.102Z,15.44
2016-12-05T04:35:38.325Z,15.38
2016-12-05T04:36:06.619Z,15.35
2016-12-05T04:36:34.843Z,15.38
2016-12-05T04:37:03.137Z,15.44
2016-12-05T04:37:31.491Z,15.4
2016-12-05T04:37:59.524Z,15.35
2016-12-05T04:38:27.566Z,15.4
2016-12-05T04:38:55.800Z,15.37
2016-12-05T04:39:24.107Z,15.37
2016-12-05T04:39:52.346Z,15.37
2016-12-05T04:40:20.692Z,15.4
2016-12-05T04:40:48.834Z,15.37
2016-12-05T04:41:17.154Z,15.44
2016-12-05T04:41:45.406Z,15.35
2016-12-05T04:42:13.855Z,15.41
2016-12-05T04:43:24.933Z,15.45
2016-12-05T04:43:53.303Z,15.4
2016-12-05T04:44:21.598Z,15.49
2016-12-05T04:44:49.716Z,15.52
2016-12-05T04:45:17.943Z,15.49
2016-12-05T04:45:46.167Z,15.44
2016-12-05T04:46:14.363Z,15.44
2016-12-05T04:46:42.531Z,15.56
2016-12-05T04:47:10.898Z,15.6
2016-12-05T04:47:39.163Z,15.44
2016-12-05T04:48:07.369Z,15.52
2016-12-05T04:48:35.508Z,15.55
2016-12-05T04:49:04.081Z,15.51
2016-12-05T04:49:32.377Z,15.56
2016-12-05T04:50:00.646Z,15.49
2016-12-05T04:50:28.875Z,15.49
2016-12-05T04:50:57.142Z,15.49
2016-12-05T04:51:25.359Z,15.53
2016-12-05T04:51:53.386Z,15.56
2016-12-05T04:52:21.483Z,15.55
2016-12-05T04:52:49.704Z,15.53
2016-12-05T04:53:18.013Z,15.59
2016-12-05T04:53:46.311Z,15.58
2016-12-05T04:54:14.547Z,15.58
2016-12-05T04:54:42.874Z,15.51
2016-12-05T04:55:11.055Z,15.59
2016-12-05T04:55:39.301Z,15.45
2016-12-05T04:56:07.664Z,15.52
2016-12-05T04:56:35.941Z,15.53
2016-12-05T04:57:04.115Z,15.53
2016-12-05T04:57:32.185Z,15.49
2016-12-05T04:58:00.458Z,15.59
2016-12-05T04:58:28.663Z,15.55
2016-12-05T04:59:17.373Z,15.55
2016-12-05T04:59:45.488Z,15.56
2016-12-05T05:00:13.637Z,15.53
2016-12-05T05:00:41.726Z,15.59
2016-12-05T05:01:09.944Z,15.55
2016-12-05T05:01:38.173Z,15.52
2016-12-05T05:02:06.354Z,15.47
2016-12-05T05:03:06.302Z,15.53
2016-12-05T05:03:34.328Z,15.53
2016-12-05T05:04:02.394Z,15.45
2016-12-05T05:04:30.764Z,15.49
2016-12-05T05:04:59.019Z,15.45
2016-12-05T05:05:27.253Z,15.41
2016-12-05T05:05:55.540Z,15.51
2016-12-05T05:06:23.614Z,15.52
2016-12-05T05:06:51.964Z,15.51
2016-12-05T05:08:03.270Z,15.45
2016-12-05T05:08:31.453Z,15.51
2016-12-05T05:08:59.605Z,15.56
2016-12-05T05:09:27.904Z,15.49
2016-12-05T05:09:56.049Z,15.47
2016-12-05T05:10:24.188Z,15.38
2016-12-05T05:10:52.335Z,15.47
2016-12-05T05:11:20.298Z,15.49
2016-12-05T05:11:48.598Z,15.44
2016-12-05T05:12:16.932Z,15.47
2016-12-05T05:12:45.301Z,15.37
2016-12-05T05:13:13.483Z,15.4
2016-12-05T05:13:41.790Z,15.37
2016-12-05T05:14:09.810Z,15.38
2016-12-05T05:14:37.981Z,15.35
2016-12-05T05:15:06.044Z,15.41
2016-12-05T05:15:34.253Z,15.45
2016-12-05T05:16:02.526Z,15.45
2016-12-05T05:16:30.898Z,15.41
2016-12-05T05:16:59.111Z,15.41
2016-12-05T05:17:27.312Z,15.4
2016-12-05T05:17:55.452Z,15.34
2016-12-05T05:18:23.737Z,15.4
2016-12-05T05:18:52.062Z,15.4
2016-12-05T05:19:20.188Z,15.35
2016-12-05T05:19:48.431Z,15.38
2016-12-05T05:20:16.653Z,15.33
2016-12-05T05:20:44.931Z,15.45
2016-12-05T05:21:12.900Z,15.3
2016-12-05T05:21:41.288Z,15.35
2016-12-05T05:22:09.358Z,15.38
2016-12-05T05:22:37.593Z,15.34
2016-12-05T05:23:05.565Z,15.33
2016-12-05T05:23:33.893Z,15.26
2016-12-05T05:24:02.046Z,15.26
2016-12-05T05:24:30.220Z,15.27
2016-12-05T05:24:58.563Z,15.27
2016-12-05T05:25:26.990Z,15.26
2016-12-05T05:25:55.276Z,15.27
2016-12-05T05:26:23.546Z,15.26
2016-12-05T05:26:51.692Z,15.27
2016-12-05T05:27:19.685Z,15.23
2016-12-05T05:27:47.698Z,15.25
2016-12-05T05:28:15.803Z,15.25
2016-12-05T05:28:44.024Z,15.34
2016-12-05T05:29:12.228Z,15.25
2016-12-05T05:29:40.565Z,15.23
2016-12-05T05:30:09.047Z,15.27
2016-12-05T05:31:59.826Z,15.26
2016-12-05T05:32:28.235Z,15.3
2016-12-05T05:32:56.430Z,15.26
2016-12-05T05:33:24.606Z,15.26
2016-12-05T05:33:52.651Z,15.26
2016-12-05T05:34:20.926Z,15.23
2016-12-05T05:34:49.323Z,15.35
2016-12-05T05:35:17.608Z,15.34
2016-12-05T05:35:45.825Z,15.44
2016-12-05T05:36:14.225Z,15.3
2016-12-05T05:36:42.382Z,15.43
2016-12-05T05:37:10.609Z,15.38
2016-12-05T05:37:38.789Z,15.4
2016-12-05T05:38:06.958Z,15.38
2016-12-05T05:38:35.047Z,15.4
2016-12-05T05:39:03.410Z,15.37
2016-12-05T05:39:31.771Z,15.31
2016-12-05T05:39:59.971Z,15.35
2016-12-05T05:40:28.193Z,15.47
2016-12-05T05:40:56.360Z,15.37
2016-12-05T05:41:24.444Z,15.43
2016-12-05T05:41:52.684Z,15.37
2016-12-05T05:42:20.850Z,15.34
2016-12-05T05:42:49.137Z,15.43
2016-12-05T05:43:17.357Z,15.4
2016-12-05T05:43:45.545Z,15.41
2016-12-05T05:44:13.878Z,15.35
2016-12-05T05:44:42.091Z,15.37
2016-12-05T05:45:10.106Z,15.35
2016-12-05T05:45:38.282Z,15.38
2016-12-05T05:46:06.490Z,15.41
2016-12-05T05:46:34.630Z,15.37
2016-12-05T05:47:02.752Z,15.38
2016-12-05T05:47:30.995Z,15.37
2016-12-05T05:47:59.281Z,15.47
2016-12-05T05:48:27.652Z,15.35
2016-12-05T05:48:55.950Z,15.4
2016-12-05T05:49:24.210Z,15.35
2016-12-05T05:49:52.518Z,15.4
2016-12-05T05:50:20.633Z,15.44
2016-12-05T05:50:48.863Z,15.37
2016-12-05T05:51:16.997Z,15.4
2016-12-05T05:51:45.212Z,15.37
2016-12-05T05:52:39.280Z,15.37
2016-12-05T05:53:07.563Z,15.34
2016-12-05T05:53:35.931Z,15.37
2016-12-05T05:54:04.162Z,15.31
2016-12-05T05:54:32.395Z,15.37
2016-12-05T05:55:00.507Z,15.37
2016-12-05T05:55:28.784Z,15.35
2016-12-05T05:55:56.971Z,15.34
2016-12-05T05:56:24.910Z,15.31
2016-12-05T05:56:52.947Z,15.3
2016-12-05T05:57:21.251Z,15.31
2016-12-05T05:57:49.542Z,15.26
2016-12-05T05:58:17.696Z,15.27
2016-12-05T05:58:45.932Z,15.31
2016-12-05T05:59:14.069Z,15.31
2016-12-05T05:59:42.347Z,15.27
2016-12-05T06:00:10.552Z,15.23
2016-12-05T06:00:38.853Z,15.34
2016-12-05T06:01:07.154Z,15.33
2016-12-05T06:01:35.394Z,15.31
2016-12-05T06:02:03.640Z,15.35
2016-12-05T06:02:31.805Z,15.35
2016-12-05T06:03:00.070Z,15.44
2016-12-05T06:03:28.399Z,15.41
2016-12-05T06:03:56.668Z,15.37
2016-12-05T06:04:24.806Z,15.43
2016-12-05T06:04:53.017Z,15.44
2016-12-05T06:05:21.449Z,15.41
2016-12-05T06:05:49.661Z,15.37
2016-12-05T06:06:17.923Z,15.35
2016-12-05T06:07:28.998Z,15.44
2016-12-05T06:07:57.196Z,15.35
2016-12-05T06:08:25.426Z,15.47
2016-12-05T06:08:53.549Z,15.38
2016-12-05T06:09:21.681Z,15.43
2016-12-05T06:09:49.848Z,15.41
2016-12-05T06:10:18.203Z,15.4
2016-12-05T06:10:46.444Z,15.4
2016-12-05T06:11:14.758Z,15.31
2016-12-05T06:11:42.886Z,15.23
2016-12-05T06:12:11.144Z,15.3
2016-12-05T06:12:39.218Z,15.23
2016-12-05T06:13:07.415Z,15.23
2016-12-05T06:13:35.661Z,15.3
2016-12-05T06:14:03.915Z,15.3
2016-12-05T06:14:32.038Z,15.26
2016-12-05T06:15:00.177Z,15.27
2016-12-05T06:15:28.133Z,15.25
2016-12-05T06:15:56.241Z,15.34
2016-12-05T06:16:24.463Z,15.27
2016-12-05T06:16:52.667Z,15.27
2016-12-05T06:17:20.934Z,15.3